M I D A S
Marine Information and Data Acquisition System
Tripno 841 of the Zeeleeuw from 2005-01-25 07:31:36 to 2005-01-25 16:34:44
Back to CruiseResearch ActivitiesStationsMapUnderway DataData graphs

EquipmentUnitsComment
TimeDGPSUTC
LatitudeDGPSDM.mWGS84
LongitudeDGPSDM.mWGS84
HeadingGyrodeg 
SOGDGPSknotsSpeed over ground
COGDGPSdegCourse over ground
DepthEcho soundermeters200 kHz
Missing or incorrect values are displayed as -999
Navigation data collected by the RV Zeeleeuw from 2005-01-25 07:32:50 to 2005-01-25 16:45:10
Time Latitude Longitude Heading SOG COG Depth
2005-01-25 07:33:56 51°13.611 2°56.043 118.5 2.9 294 -999
2005-01-25 07:34:56 51°13.641 2°55.957 127.5 3.9 301 -999
2005-01-25 07:35:56 51°13.683 2°55.862 125.1 4.3 303 -999
2005-01-25 07:36:56 51°13.712 2°55.752 103.5 4.4 282 -999
2005-01-25 07:37:56 51°13.723 2°55.734 57.5 1.7 49 10
2005-01-25 07:38:56 51°13.715 2°55.723 24.7 0.8 4 -999
2005-01-25 07:39:56 51°13.78 2°55.674 333.4 6.4 331 9.5
2005-01-25 07:40:56 51°13.898 2°55.576 338.2 8.4 333 9.6
2005-01-25 07:41:56 51°14.03 2°55.479 340.8 8.9 337 9
2005-01-25 07:42:56 51°14.165 2°55.381 337.3 8.9 332 9.6
2005-01-25 07:43:56 51°14.274 2°55.224 316.1 9 312 9.5
2005-01-25 07:44:56 51°14.386 2°55.019 317.3 11 312 9.8
2005-01-25 07:45:56 51°14.52 2°54.8 332.4 11.7 320 9.3
2005-01-25 07:46:56 51°14.69 2°54.676 344.8 11.4 334 8.6
2005-01-25 07:47:56 51°14.865 2°54.575 353.4 11.1 346 8.4
2005-01-25 07:48:56 51°15.04 2°54.483 348.3 10.9 339 7.4
2005-01-25 07:49:56 51°15.215 2°54.396 354.6 11.1 346 7.7
2005-01-25 07:50:56 51°15.389 2°54.307 355.1 11 344 8.4
2005-01-25 07:51:55 51°15.563 2°54.222 354.8 11 344 8.8
2005-01-25 07:52:56 51°15.739 2°54.14 353.9 10.9 343 9.7
2005-01-25 07:53:56 51°15.913 2°54.101 12 10.3 3 10.3
2005-01-25 07:54:56 51°16.078 2°54.165 27.7 10.2 21 10.6
2005-01-25 07:55:56 51°16.193 2°54.233 39.5 5.7 32 10.9
2005-01-25 07:56:56 51°16.229 2°54.29 51.7 1.6 47 10.9
2005-01-25 07:57:56 51°16.226 2°54.275 30.4 1 251 11
2005-01-25 07:58:56 51°16.217 2°54.237 8.9 1.8 251 10.8
2005-01-25 07:59:56 51°16.203 2°54.189 355 2 243 11
2005-01-25 08:00:56 51°16.182 2°54.141 335.8 2.3 230 11.1
2005-01-25 08:01:56 51°16.157 2°54.095 317.6 2.2 227 10.9
2005-01-25 08:02:56 51°16.131 2°54.051 307.7 2.2 227 11
2005-01-25 08:03:56 51°16.103 2°54.011 302.5 2.2 222 11
2005-01-25 08:04:56 51°16.076 2°53.97 300 2.1 226 10.9
2005-01-25 08:05:56 51°16.048 2°53.929 301.9 2.5 225 11.1
2005-01-25 08:06:56 51°16.02 2°53.887 303.3 2.1 223 10.9
2005-01-25 08:07:56 51°16.007 2°53.828 323.9 3 285 11
2005-01-25 08:08:56 51°16.053 2°53.804 30.4 4.3 22 11.2
2005-01-25 08:09:56 51°16.113 2°53.944 55.4 7.5 50 11.2
2005-01-25 08:10:56 51°16.188 2°54.115 59.9 7.8 60 10.8
2005-01-25 08:11:56 51°16.239 2°54.241 53.2 3.7 51 11.1
2005-01-25 08:12:56 51°16.243 2°54.282 76.1 1.1 136 11.1
2005-01-25 08:13:56 51°16.223 2°54.278 82.5 1.5 200 11.1
2005-01-25 08:14:56 51°16.197 2°54.256 87.8 2 202 11.1
2005-01-25 08:15:56 51°16.172 2°54.239 72.5 1.3 217 10.8
2005-01-25 08:16:56 51°16.154 2°54.218 51.5 1.4 194 11.1
2005-01-25 08:17:56 51°16.137 2°54.182 32.8 2 229 11.1
2005-01-25 08:18:56 51°16.112 2°54.131 358.5 2.5 229 11
2005-01-25 08:19:56 51°16.106 2°54.052 304.9 3.7 271 11.2
2005-01-25 08:20:56 51°16.078 2°53.866 262.6 9.9 251 11.2
2005-01-25 08:21:56 51°16.04 2°53.527 271 14.3 264 11.3
2005-01-25 08:22:56 51°16.074 2°53.157 301.3 14 290 11.5
2005-01-25 08:23:56 51°16.239 2°52.937 339.9 12.8 333 11.9
2005-01-25 08:24:56 51°16.437 2°52.822 352.5 12.6 342 11.6
2005-01-25 08:25:56 51°16.64 2°52.728 352.6 12.6 344 10.7
2005-01-25 08:26:56 51°16.836 2°52.633 352.8 12.3 343 9.1
2005-01-25 08:27:56 51°17.034 2°52.541 353.3 12.5 344 9.2
2005-01-25 08:28:56 51°17.232 2°52.447 353.1 12.3 342 9.3
2005-01-25 08:29:56 51°17.421 2°52.303 341.3 12.8 330 9.8
2005-01-25 08:30:56 51°17.596 2°52.108 335.6 12.9 325 10.1
2005-01-25 08:31:56 51°17.768 2°51.903 336.3 12.6 324 9.7
2005-01-25 08:32:56 51°17.941 2°51.705 335.9 12.8 324 9.8
2005-01-25 08:33:56 51°18.117 2°51.504 336.4 13.1 325 10.9
2005-01-25 08:34:56 51°18.294 2°51.297 336.8 13.2 324 12.3
2005-01-25 08:35:56 51°18.46 2°51.069 324.5 13.1 313 13.1
2005-01-25 08:36:56 51°18.545 2°51.005 17.3 2.6 342 14
2005-01-25 08:37:56 51°18.552 2°50.984 38.1 0.8 268 13.9
2005-01-25 08:38:56 51°18.542 2°50.952 37.6 1.5 232 13.8
2005-01-25 08:39:56 51°18.52 2°50.907 33 2.2 227 14.3
2005-01-25 08:40:56 51°18.492 2°50.852 13.2 3.2 230 14
2005-01-25 08:41:56 51°18.476 2°50.799 357.5 2.2 272 14
2005-01-25 08:42:56 51°18.522 2°50.824 47.1 5.9 43 14.2
2005-01-25 08:43:56 51°18.618 2°51.025 60.9 11 62 14
2005-01-25 08:44:56 51°18.69 2°51.305 70.6 11.4 70 13.9
2005-01-25 08:45:56 51°18.755 2°51.593 70.4 11.6 72 13.7
2005-01-25 08:46:56 51°18.823 2°51.882 70 11.5 68 13.3
2005-01-25 08:47:56 51°18.893 2°52.169 68.6 11.5 69 13.1
2005-01-25 08:48:56 51°18.963 2°52.455 68.9 11.7 70 12.9
2005-01-25 08:49:56 51°19.035 2°52.745 69.9 11.6 69 12.3
2005-01-25 08:50:56 51°19.105 2°53.038 70.3 11.9 67 12.3
2005-01-25 08:51:56 51°19.174 2°53.331 69.9 11.6 71 12.1
2005-01-25 08:52:56 51°19.236 2°53.624 70.7 11.6 70 12.2
2005-01-25 08:53:56 51°19.297 2°53.919 72.5 11.6 70 12.1
2005-01-25 08:54:56 51°19.358 2°54.212 71.1 11.7 74 12.1
2005-01-25 08:55:56 51°19.421 2°54.506 71.2 11.6 68 12
2005-01-25 08:56:56 51°19.483 2°54.802 71.6 12 74 12.1
2005-01-25 08:57:56 51°19.546 2°55.099 70.4 11.8 73 12.1
2005-01-25 08:58:56 51°19.606 2°55.394 71.4 11.7 71 11.9
2005-01-25 08:59:56 51°19.667 2°55.692 71.1 11.7 71 11.7
2005-01-25 09:00:56 51°19.728 2°55.983 70.9 11.7 72 11.6
2005-01-25 09:01:56 51°19.792 2°56.275 71.4 11.7 72 11.5
2005-01-25 09:02:56 51°19.856 2°56.57 71.7 11.8 71 11.4
2005-01-25 09:03:56 51°19.922 2°56.871 71.3 12.2 71 11.3
2005-01-25 09:04:56 51°19.992 2°57.179 70.9 12.3 69 11.3
2005-01-25 09:05:56 51°20.057 2°57.485 71.5 11.9 73 11.3
2005-01-25 09:06:56 51°20.122 2°57.785 70.4 11.7 69 11.3
2005-01-25 09:07:56 51°20.187 2°58.081 71.6 11.9 72 10.9
2005-01-25 09:08:56 51°20.255 2°58.384 70.7 12.3 68 11
2005-01-25 09:09:56 51°20.323 2°58.689 70.8 12.1 71 11
2005-01-25 09:10:56 51°20.39 2°58.989 71.7 11.9 70 10.8
2005-01-25 09:11:56 51°20.457 2°59.291 71 12.1 72 10.8
2005-01-25 09:12:56 51°20.524 2°59.59 71.5 12.1 71 10.8
2005-01-25 09:13:56 51°20.591 2°59.893 72.2 12.2 70 10.2
2005-01-25 09:14:56 51°20.655 3°0.199 74.3 12.1 74 10.6
2005-01-25 09:15:56 51°20.718 3°0.508 73.3 12.2 72 10.4
2005-01-25 09:16:56 51°20.782 3°0.816 73.7 12.3 73 10.6
2005-01-25 09:17:56 51°20.842 3°1.125 73.5 12 72 10.5
2005-01-25 09:18:56 51°20.905 3°1.434 73.4 12.3 74 10.5
2005-01-25 09:19:56 51°20.969 3°1.743 72.7 12.3 73 10.5
2005-01-25 09:20:56 51°21.031 3°2.053 73.2 12.3 70 10.9
2005-01-25 09:21:56 51°21.097 3°2.363 73.3 12.4 73 10.5
2005-01-25 09:22:56 51°21.161 3°2.676 73.1 12.2 71 10.6
2005-01-25 09:23:56 51°21.224 3°2.988 73.7 12.3 73 10.7
2005-01-25 09:24:56 51°21.287 3°3.302 73.7 12.3 76 10.7
2005-01-25 09:25:56 51°21.352 3°3.616 73.3 12.6 71 10.9
2005-01-25 09:26:56 51°21.416 3°3.93 73 12.4 72 10.9
2005-01-25 09:27:56 51°21.482 3°4.245 73.2 12.5 72 10.9
2005-01-25 09:28:56 51°21.546 3°4.559 73.2 12.4 71 10.6
2005-01-25 09:29:56 51°21.612 3°4.874 73.4 12.4 73 11
2005-01-25 09:30:56 51°21.676 3°5.186 73.8 12.5 72 11.1
2005-01-25 09:31:56 51°21.741 3°5.504 72.4 12.4 71 11.2
2005-01-25 09:32:56 51°21.806 3°5.819 74 12.5 72 11.2
2005-01-25 09:33:56 51°21.87 3°6.137 73 12.6 73 11.3
2005-01-25 09:34:56 51°21.934 3°6.456 73 12.4 72 11.4
2005-01-25 09:35:56 51°21.993 3°6.776 75.4 12.6 78 11.8
2005-01-25 09:36:56 51°22.019 3°7.113 83.4 12.5 83 11.8
2005-01-25 09:37:56 51°22.048 3°7.454 82.3 13 81 12
2005-01-25 09:38:56 51°22.076 3°7.794 83.4 12.9 84 11.9
2005-01-25 09:39:56 51°22.107 3°8.133 83.5 13.1 81 12
2005-01-25 09:40:56 51°22.137 3°8.476 82.4 13.1 81 12.1
2005-01-25 09:41:56 51°22.169 3°8.823 82.7 13.3 80 12.2
2005-01-25 09:42:56 51°22.206 3°9.17 81.4 13.2 82 12.5
2005-01-25 09:43:56 51°22.242 3°9.518 82.4 13.3 80 13
2005-01-25 09:44:56 51°22.279 3°9.866 82.2 13.3 77 13.6
2005-01-25 09:45:56 51°22.317 3°10.215 82.4 13.2 79 14.1
2005-01-25 09:46:56 51°22.359 3°10.558 82.9 13.3 83 17.4
2005-01-25 09:47:56 51°22.401 3°10.908 82 13.1 80 16.1
2005-01-25 09:48:56 51°22.437 3°11.255 84.1 13.2 77 15.6
2005-01-25 09:49:56 51°22.47 3°11.606 85.6 13.3 79 15.2
2005-01-25 09:50:56 51°22.505 3°11.961 83.5 13.5 80 14.4
2005-01-25 09:51:56 51°22.543 3°12.316 82.9 13.8 81 14
2005-01-25 09:52:56 51°22.582 3°12.669 82.7 13.5 80 13.5
2005-01-25 09:53:56 51°22.622 3°13.013 83.5 11.6 79 12.6
2005-01-25 09:54:56 51°22.646 3°13.217 71.7 5.1 67 12.3
2005-01-25 09:55:56 51°22.659 3°13.263 41.5 0.5 71 12.3
2005-01-25 09:56:56 51°22.657 3°13.27 32 0.3 121 12.3
2005-01-25 09:57:56 51°22.652 3°13.272 23.3 0.3 197 5.3
2005-01-25 09:58:56 51°22.644 3°13.27 13.7 0.5 201 12.4
2005-01-25 09:59:56 51°22.634 3°13.269 4.3 0.6 194 12.4
2005-01-25 10:00:56 51°22.624 3°13.269 356.4 0.6 198 12.3
2005-01-25 10:01:56 51°22.614 3°13.271 347.2 0.7 191 12.4
2005-01-25 10:02:56 51°22.603 3°13.274 335.3 0.6 166 12.4
2005-01-25 10:03:56 51°22.593 3°13.279 322.8 0.6 164 12.6
2005-01-25 10:04:56 51°22.584 3°13.284 310.6 0.6 147 12.6
2005-01-25 10:05:56 51°22.574 3°13.291 298.7 0.6 142 12.4
2005-01-25 10:06:56 51°22.565 3°13.299 288.1 0.6 148 12.5
2005-01-25 10:07:56 51°22.565 3°13.285 305 2.1 300 12.5
2005-01-25 10:08:56 51°22.636 3°13.293 30.5 7.2 31 12.3
2005-01-25 10:09:56 51°22.808 3°13.443 31.7 13.3 29 11.6
2005-01-25 10:10:56 51°22.992 3°13.651 39.9 13.6 36 11.1
2005-01-25 10:11:56 51°23.173 3°13.864 39.8 13.3 37 10.9
2005-01-25 10:12:56 51°23.354 3°14.076 40.5 13.4 36 10.2
2005-01-25 10:13:56 51°23.532 3°14.289 40.5 13.4 37 11.9
2005-01-25 10:14:56 51°23.711 3°14.504 40.3 13.7 37 12
2005-01-25 10:15:56 51°23.893 3°14.722 40.5 13.8 37 11.1
2005-01-25 10:16:56 51°24.072 3°14.951 44.5 13.7 41 11.5
2005-01-25 10:17:56 51°24.246 3°15.193 43.6 13.9 42 13.2
2005-01-25 10:18:56 51°24.42 3°15.447 45 14.2 42 16.6
2005-01-25 10:19:56 51°24.592 3°15.705 46.1 14.4 44 18.7
2005-01-25 10:20:56 51°24.768 3°15.965 44.9 14.3 43 17.9
2005-01-25 10:21:56 51°24.942 3°16.228 45.7 14.3 45 14.9
2005-01-25 10:22:56 51°25.109 3°16.487 45.9 13.9 44 13.9
2005-01-25 10:23:56 51°25.272 3°16.739 46.1 13.4 46 11.3
2005-01-25 10:24:56 51°25.435 3°16.992 46.6 13.6 45 10.1
2005-01-25 10:25:56 51°25.583 3°17.262 53.3 13.7 52 9.5
2005-01-25 10:26:56 51°25.729 3°17.539 51.3 13.6 50 9.1
2005-01-25 10:27:56 51°25.859 3°17.766 37.7 9.2 37 9.1
2005-01-25 10:28:56 51°25.922 3°17.808 24.8 1.1 67 9.1
2005-01-25 10:29:56 51°25.913 3°17.818 36.7 0.9 145 9.2
2005-01-25 10:30:56 51°25.9 3°17.828 34.1 0.7 168 5.2
2005-01-25 10:31:56 51°25.887 3°17.838 30.1 1.2 145 9.3
2005-01-25 10:32:56 51°25.872 3°17.848 25.1 1 137 9.3
2005-01-25 10:33:56 51°25.889 3°17.839 325.8 2.3 338 9.4
2005-01-25 10:34:56 51°25.879 3°17.703 262.6 7.9 254 9
2005-01-25 10:35:56 51°25.816 3°17.41 258.2 12.7 252 8.8
2005-01-25 10:36:56 51°25.757 3°17.082 260.8 13 254 8.8
2005-01-25 10:37:56 51°25.717 3°16.741 265.6 13.2 258 8.7
2005-01-25 10:38:56 51°25.685 3°16.394 269.5 13.1 263 8.7
2005-01-25 10:39:56 51°25.664 3°16.052 271.5 13 264 8.7
2005-01-25 10:40:56 51°25.631 3°15.706 266.2 13.1 260 8.7
2005-01-25 10:41:56 51°25.592 3°15.363 267.5 13.1 261 8.7
2005-01-25 10:42:56 51°25.552 3°15.019 267.2 13.1 261 9
2005-01-25 10:43:56 51°25.514 3°14.671 268.3 13.3 259 9.2
2005-01-25 10:44:56 51°25.476 3°14.322 267.3 13.3 261 10
2005-01-25 10:45:56 51°25.44 3°13.972 267.6 13.2 261 10.3
2005-01-25 10:46:56 51°25.402 3°13.625 267.2 13.4 260 10.7
2005-01-25 10:47:56 51°25.367 3°13.283 267.9 13 265 10.7
2005-01-25 10:48:56 51°25.349 3°12.937 272.4 13 264 10.7
2005-01-25 10:49:56 51°25.332 3°12.591 272.1 13.1 262 11
2005-01-25 10:50:56 51°25.342 3°12.254 286.1 12.8 281 11
2005-01-25 10:51:56 51°25.446 3°11.968 314 12.4 310 10.6
2005-01-25 10:52:56 51°25.574 3°11.707 313.7 12.2 306 9.5
2005-01-25 10:53:56 51°25.688 3°11.435 310.5 12.2 303 8.5
2005-01-25 10:54:56 51°25.796 3°11.168 310.8 12.1 303 8.2
2005-01-25 10:55:56 51°25.899 3°10.891 304.2 12.4 295 8.2
2005-01-25 10:56:56 51°25.994 3°10.598 305.5 12.3 297 8.5
2005-01-25 10:57:56 51°26.062 3°10.284 293.6 12.6 286 9
2005-01-25 10:58:56 51°26.121 3°9.965 294.3 12.7 285 9.3
2005-01-25 10:59:56 51°26.181 3°9.641 294.1 12.8 285 9.4
2005-01-25 11:00:56 51°26.24 3°9.315 293.2 12.8 286 10
2005-01-25 11:01:56 51°26.299 3°8.987 294.9 12.8 287 10.5
2005-01-25 11:02:56 51°26.349 3°8.733 297.9 7.5 288 11.4
2005-01-25 11:03:56 51°26.379 3°8.621 328 3.1 315 11.9
2005-01-25 11:04:56 51°26.412 3°8.559 318.3 3.9 307 12.1
2005-01-25 11:05:56 51°26.435 3°8.456 298.6 3.4 285 12.3
2005-01-25 11:06:56 51°26.462 3°8.41 339.3 1.5 323 12.1
2005-01-25 11:07:56 51°26.466 3°8.402 343.2 0.1 348 12.1
2005-01-25 11:08:56 51°26.46 3°8.398 337.1 0.6 208 12.4
2005-01-25 11:09:56 51°26.45 3°8.395 332.9 0.6 172 12.2
2005-01-25 11:10:56 51°26.437 3°8.391 328 0.8 181 12.3
2005-01-25 11:11:56 51°26.437 3°8.366 311.1 2.7 291 12.2
2005-01-25 11:12:56 51°26.509 3°8.189 312.3 9.8 307 11.8
2005-01-25 11:13:56 51°26.605 3°7.92 302.1 12.5 297 11.8
2005-01-25 11:14:56 51°26.714 3°7.629 308.2 12.6 301 12.3
2005-01-25 11:15:56 51°26.823 3°7.347 309.9 12.6 302 12.5
2005-01-25 11:16:56 51°26.934 3°7.063 308.6 12.4 303 13.3
2005-01-25 11:17:56 51°27.047 3°6.783 308.7 12.6 301 14.2
2005-01-25 11:18:56 51°27.165 3°6.501 310.4 12.5 305 14.6
2005-01-25 11:19:56 51°27.279 3°6.22 308.6 12.6 304 15
2005-01-25 11:20:56 51°27.397 3°5.935 309.5 12.9 305 15.4
2005-01-25 11:21:56 51°27.509 3°5.657 309.4 12.5 303 15.8
2005-01-25 11:22:56 51°27.628 3°5.376 308.4 12.6 303 17
2005-01-25 11:23:56 51°27.746 3°5.092 309.6 12.9 304 15.3
2005-01-25 11:24:56 51°27.866 3°4.808 310.1 12.8 304 16
2005-01-25 11:25:56 51°27.976 3°4.521 301.3 12.8 294 18.1
2005-01-25 11:26:56 51°28.063 3°4.204 298.5 12.9 294 20.2
2005-01-25 11:27:56 51°28.157 3°3.888 299.6 13.1 296 22
2005-01-25 11:28:56 51°28.228 3°3.645 294.5 7.4 290 23.9
2005-01-25 11:29:56 51°28.257 3°3.496 296 4.8 293 24.5
2005-01-25 11:30:56 51°28.26 3°3.467 289.8 0.4 231 24.9
2005-01-25 11:31:56 51°28.255 3°3.46 291.6 0.6 213 24.7
2005-01-25 11:32:56 51°28.25 3°3.454 307 0.5 210 24.9
2005-01-25 11:33:56 51°28.245 3°3.452 318.7 0.2 112 24.4
2005-01-25 11:34:56 51°28.239 3°3.455 325.9 0.5 172 24.8
2005-01-25 11:35:56 51°28.242 3°3.446 322.2 2 316 24.9
2005-01-25 11:36:56 51°28.303 3°3.263 290.1 10.5 279 25.6
2005-01-25 11:37:56 51°28.285 3°2.949 263.8 13 259 26
2005-01-25 11:38:56 51°28.227 3°2.613 255.3 13.3 250 26.3
2005-01-25 11:39:56 51°28.16 3°2.278 256.6 13.4 251 26.2
2005-01-25 11:40:56 51°28.105 3°1.939 257.9 13.1 257 26.5
2005-01-25 11:41:56 51°28.05 3°1.601 260.4 13.1 258 26.3
2005-01-25 11:42:56 51°27.986 3°1.269 254.4 13 253 25.5
2005-01-25 11:43:56 51°27.915 3°0.937 255.5 13 252 25.4
2005-01-25 11:44:56 51°27.853 3°0.605 261.3 13 256 25.1
2005-01-25 11:45:56 51°27.8 3°0.258 259.6 13 257 23.2
2005-01-25 11:46:56 51°27.748 2°59.918 259.3 13.2 256 21.1
2005-01-25 11:47:56 51°27.696 2°59.577 260.5 13.1 257 21.6
2005-01-25 11:48:56 51°27.644 2°59.238 260.6 13.3 255 21.8
2005-01-25 11:49:56 51°27.591 2°58.905 259.8 12.8 257 21.4
2005-01-25 11:50:56 51°27.539 2°58.567 261.9 12.7 261 20.8
2005-01-25 11:51:56 51°27.486 2°58.234 258.6 12.8 255 22.3
2005-01-25 11:52:56 51°27.431 2°57.898 259.4 13.3 256 24.9
2005-01-25 11:53:56 51°27.382 2°57.556 261.3 13.1 258 27.3
2005-01-25 11:54:56 51°27.337 2°57.217 259.3 13.3 254 28.4
2005-01-25 11:55:56 51°27.288 2°56.875 262.9 12.8 254 25.6
2005-01-25 11:56:56 51°27.241 2°56.547 262 12.8 257 26.4
2005-01-25 11:57:56 51°27.191 2°56.213 258.4 13.1 251 30.7
2005-01-25 11:58:56 51°27.148 2°55.875 261.1 12.7 261 31.4
2005-01-25 11:59:56 51°27.099 2°55.542 259.7 12.7 259 32.2
2005-01-25 12:00:56 51°27.049 2°55.212 263.4 12.6 263 30.7
2005-01-25 12:01:56 51°27.008 2°54.88 259.5 12.6 256 30.2
2005-01-25 12:02:56 51°26.97 2°54.549 260.1 13 259 30.4
2005-01-25 12:03:56 51°26.933 2°54.219 260.2 12.3 261 26.7
2005-01-25 12:04:56 51°26.892 2°53.889 260.9 12.4 259 29.2
2005-01-25 12:05:56 51°26.847 2°53.56 258.8 12.7 257 29.6
2005-01-25 12:06:56 51°26.8 2°53.225 262.1 13.1 262 32
2005-01-25 12:07:56 51°26.757 2°52.889 261 12.9 255 31.4
2005-01-25 12:08:56 51°26.711 2°52.557 260.7 12.8 255 30.6
2005-01-25 12:09:56 51°26.67 2°52.224 260 12.7 255 29.8
2005-01-25 12:10:56 51°26.628 2°51.89 261 12.6 255 30.5
2005-01-25 12:11:56 51°26.583 2°51.561 258.1 12.4 260 28.5
2005-01-25 12:12:56 51°26.542 2°51.228 262.5 12.5 259 29.6
2005-01-25 12:13:57 51°26.496 2°50.898 260.2 12.6 258 26.3
2005-01-25 12:14:56 51°26.455 2°50.574 262.2 13 261 26.7
2005-01-25 12:15:56 51°26.413 2°50.244 259.8 12.6 262 26.2
2005-01-25 12:16:56 51°26.352 2°49.92 249.5 12.7 249 26
2005-01-25 12:17:56 51°26.242 2°49.637 239.8 13.2 237 25.8
2005-01-25 12:18:56 51°26.151 2°49.335 249.3 12.8 250 26.4
2005-01-25 12:19:56 51°26.088 2°49.008 253.2 12.5 256 26.7
2005-01-25 12:20:56 51°26.039 2°48.759 256.4 7.1 252 26.9
2005-01-25 12:21:56 51°26.016 2°48.617 255.3 4.9 261 27.4
2005-01-25 12:22:57 51°26.005 2°48.549 264.9 0.7 288 26.9
2005-01-25 12:23:56 51°26.013 2°48.534 287.5 0.7 328 26.6
2005-01-25 12:24:56 51°26.027 2°48.533 304.9 0.4 348 26.1
2005-01-25 12:25:56 51°26.037 2°48.543 313 0.6 33 26.8
2005-01-25 12:26:56 51°26.046 2°48.557 318.9 0.4 60 26.6
2005-01-25 12:27:56 51°26.052 2°48.574 316.4 0.4 100 27.2
2005-01-25 12:28:56 51°26.055 2°48.595 314.8 0.6 85 27.3
2005-01-25 12:29:56 51°26.058 2°48.615 312 0.8 78 26.7
2005-01-25 12:30:56 51°26.061 2°48.634 312.4 0.9 74 26.3
2005-01-25 12:31:56 51°26.064 2°48.653 311.4 0.9 76 27.1
2005-01-25 12:32:56 51°26.067 2°48.67 313.3 0.7 68 27.5
2005-01-25 12:33:56 51°26.071 2°48.687 315.7 0.6 83 27
2005-01-25 12:34:56 51°26.089 2°48.663 293 3.5 293 26.8
2005-01-25 12:35:56 51°26.027 2°48.58 210.2 7.6 206 27.2
2005-01-25 12:36:56 51°25.867 2°48.406 223.2 13.1 218 26.6
2005-01-25 12:37:56 51°25.726 2°48.169 232.9 12.6 227 26.5
2005-01-25 12:38:56 51°25.606 2°47.907 240.6 12.2 237 26.7
2005-01-25 12:39:56 51°25.515 2°47.612 246.5 12.6 249 28.6
2005-01-25 12:40:56 51°25.427 2°47.314 246.7 12.5 247 28.6
2005-01-25 12:41:57 51°25.338 2°47.01 246.9 12 242 28.2
2005-01-25 12:42:57 51°25.25 2°46.711 245.8 12.3 247 28.2
2005-01-25 12:43:56 51°25.161 2°46.416 247.7 13 249 28.2
2005-01-25 12:44:56 51°25.073 2°46.116 245.3 12.7 238 27.3
2005-01-25 12:45:56 51°24.981 2°45.819 246 12.5 248 28.4
2005-01-25 12:46:56 51°24.892 2°45.518 246.4 12.3 243 28.9
2005-01-25 12:47:56 51°24.798 2°45.228 242.7 12.5 241 29.1
2005-01-25 12:48:56 51°24.706 2°44.928 248 12.4 249 28.8
2005-01-25 12:49:56 51°24.615 2°44.634 246.7 12.2 244 28.4
2005-01-25 12:50:57 51°24.525 2°44.328 247.4 12.5 249 29.6
2005-01-25 12:51:56 51°24.437 2°44.039 247.8 12.3 240 28.2
2005-01-25 12:52:56 51°24.348 2°43.742 249.1 12.2 247 29
2005-01-25 12:53:57 51°24.253 2°43.44 246.1 12.6 240 29.4
2005-01-25 12:54:57 51°24.162 2°43.146 246.8 12.1 240 24.6
2005-01-25 12:55:56 51°24.078 2°42.858 247.2 12.3 237 29.6
2005-01-25 12:56:56 51°23.988 2°42.56 246.9 12.3 240 28.9
2005-01-25 12:57:56 51°23.892 2°42.284 242.7 12.1 243 27.1
2005-01-25 12:58:56 51°23.793 2°41.99 247.8 12.8 238 28.1
2005-01-25 12:59:56 51°23.698 2°41.699 244.5 12.6 246 30.8
2005-01-25 13:00:56 51°23.598 2°41.408 243.2 -999 -999 30.9
2005-01-25 13:01:56 51°23.499 2°41.115 243.6 12.6 243 33.7
2005-01-25 13:02:56 51°23.399 2°40.833 243.5 12.8 239 32.1
2005-01-25 13:03:56 51°23.305 2°40.539 244.2 12.2 244 32.6
2005-01-25 13:04:56 51°23.203 2°40.251 240.4 11.9 236 32.8
2005-01-25 13:05:56 51°23.106 2°39.959 243 11.9 239 33.3
2005-01-25 13:06:56 51°23.014 2°39.672 245.5 12.2 246 33.4
2005-01-25 13:07:56 51°22.917 2°39.386 245.7 12.2 242 33.1
2005-01-25 13:08:56 51°22.821 2°39.103 245.4 12.2 243 33.8
2005-01-25 13:09:56 51°22.725 2°38.811 245.4 12.1 241 32.8
2005-01-25 13:10:56 51°22.633 2°38.523 244.1 12.2 236 33.5
2005-01-25 13:11:56 51°22.538 2°38.238 245.6 11.8 244 33
2005-01-25 13:12:56 51°22.447 2°37.95 245.8 12.2 244 33.2
2005-01-25 13:13:56 51°22.354 2°37.67 242.3 12.3 240 34.5
2005-01-25 13:14:56 51°22.259 2°37.392 241.9 12.8 251 33.9
2005-01-25 13:15:56 51°22.171 2°37.105 245.3 11.9 237 33.8
2005-01-25 13:16:56 51°22.078 2°36.823 243.1 11.9 239 34.3
2005-01-25 13:17:57 51°21.982 2°36.537 243.3 12.3 244 35.6
2005-01-25 13:18:56 51°21.89 2°36.255 246.4 11.9 245 34.2
2005-01-25 13:19:57 51°21.794 2°35.961 245 12.4 249 35
2005-01-25 13:20:57 51°21.703 2°35.686 242.7 11.8 240 35.2
2005-01-25 13:21:56 51°21.605 2°35.412 242.3 12.2 242 35
2005-01-25 13:22:57 51°21.512 2°35.124 243.3 11.6 243 35
2005-01-25 13:23:56 51°21.418 2°34.837 244.9 12.2 248 36.6
2005-01-25 13:24:56 51°21.325 2°34.548 245.6 12.6 247 34.4
2005-01-25 13:25:56 51°21.228 2°34.262 245.3 12 239 33.4
2005-01-25 13:26:56 51°21.148 2°33.96 249.7 12.5 254 34.2
2005-01-25 13:27:56 51°21.07 2°33.658 250.4 11.9 247 35.4
2005-01-25 13:28:56 51°20.99 2°33.353 249.7 12.1 245 34.2
2005-01-25 13:29:56 51°20.906 2°33.055 247.5 12.2 249 33.6
2005-01-25 13:30:56 51°20.824 2°32.748 246.8 12.5 242 33.6
2005-01-25 13:31:56 51°20.741 2°32.442 248.2 12.4 247 33.5
2005-01-25 13:32:56 51°20.654 2°32.135 244.5 12.9 244 33.3
2005-01-25 13:33:56 51°20.558 2°31.838 243.7 12.1 243 28.6
2005-01-25 13:34:56 51°20.456 2°31.554 245.2 13 244 23.8
2005-01-25 13:35:56 51°20.367 2°31.256 246.1 12.6 242 21
2005-01-25 13:36:57 51°20.28 2°30.955 251.3 11.4 248 18.8
2005-01-25 13:37:56 51°20.198 2°30.657 250.3 13.1 244 16.1
2005-01-25 13:38:56 51°20.106 2°30.388 239.7 10.8 230 16.1
2005-01-25 13:39:56 51°20.047 2°30.22 240.6 6.3 234 14.6
2005-01-25 13:40:57 51°20.012 2°30.082 254.7 5 253 13.6
2005-01-25 13:41:56 51°19.998 2°30.03 251 0.4 212 16.8
2005-01-25 13:42:56 51°20 2°30.027 268.4 0.2 344 17.2
2005-01-25 13:43:57 51°20.008 2°30.026 285.1 0.6 12 17.1
2005-01-25 13:44:56 51°20.018 2°30.035 297.5 0.4 42 17.3
2005-01-25 13:45:56 51°20.025 2°30.051 304.7 0.8 59 16.5
2005-01-25 13:46:56 51°20.032 2°30.078 312.6 1.1 78 13
2005-01-25 13:47:56 51°20.037 2°30.104 321.8 1 75 15.2
2005-01-25 13:48:56 51°20.039 2°30.128 322 1 76 16.9
2005-01-25 13:49:56 51°20.044 2°30.143 327.5 0.8 48 17.1
2005-01-25 13:50:57 51°20.053 2°30.165 331.8 1 57 16.3
2005-01-25 13:51:57 51°20.081 2°30.179 358.3 2.4 23 16.5
2005-01-25 13:52:57 51°20.12 2°30.223 35.5 2.8 47 16.2
2005-01-25 13:53:56 51°20.14 2°30.303 92.9 3.5 86 14.6
2005-01-25 13:54:56 51°20.123 2°30.399 118.7 4.1 115 16
2005-01-25 13:55:56 51°20.107 2°30.512 110.9 4.5 103 16.5
2005-01-25 13:56:57 51°20.088 2°30.63 114.8 4.6 110 16.7
2005-01-25 13:57:56 51°20.064 2°30.743 120.6 4.7 114 19.2
2005-01-25 13:58:56 51°20.016 2°30.886 129.1 8.5 119 21.6
2005-01-25 13:59:57 51°19.894 2°31.155 134.1 13.6 129 26.7
2005-01-25 14:00:56 51°19.76 2°31.444 131.5 13.7 126 32.6
2005-01-25 14:01:56 51°19.627 2°31.74 134.8 13.2 130 33
2005-01-25 14:02:56 51°19.482 2°32.018 136.2 13.7 128 33.4
2005-01-25 14:03:56 51°19.335 2°32.294 140.2 14.1 129 33.4
2005-01-25 14:04:56 51°19.195 2°32.564 138.8 13.4 125 32.5
2005-01-25 14:05:56 51°19.057 2°32.841 140.3 13.1 133 32.3
2005-01-25 14:06:56 51°18.917 2°33.112 138.8 13.4 131 31.6
2005-01-25 14:07:56 51°18.756 2°33.357 142.9 12.8 139 26.8
2005-01-25 14:08:56 51°18.6 2°33.602 140.3 13 132 16.8
2005-01-25 14:09:56 51°18.439 2°33.847 145.7 12.5 142 20.8
2005-01-25 14:10:56 51°18.277 2°34.088 143.2 13.7 138 28
2005-01-25 14:11:56 51°18.118 2°34.349 143.8 13.4 138 30.6
2005-01-25 14:12:56 51°17.955 2°34.594 143.9 13.5 138 30.6
2005-01-25 14:13:56 51°17.794 2°34.843 143.7 13.3 138 14.9
2005-01-25 14:14:56 51°17.631 2°35.101 144.7 13.8 133 16.7
2005-01-25 14:15:56 51°17.465 2°35.345 144.4 13.6 134 13.4
2005-01-25 14:16:56 51°17.298 2°35.59 143.3 13.6 136 14.3
2005-01-25 14:17:56 51°17.13 2°35.838 144.2 14.1 137 20.7
2005-01-25 14:18:56 51°16.963 2°36.07 143.5 13 141 27.9
2005-01-25 14:19:56 51°16.806 2°36.329 135.5 13.9 130 29.7
2005-01-25 14:20:56 51°16.685 2°36.607 131.4 11.1 124 28.9
2005-01-25 14:21:56 51°16.649 2°36.796 115.7 4.5 100 29.1
2005-01-25 14:22:57 51°16.65 2°36.83 148.4 0.7 57 29.3
2005-01-25 14:23:56 51°16.653 2°36.842 153.8 0.5 69 29.3
2005-01-25 14:24:56 51°16.655 2°36.856 143.7 0.7 76 29.2
2005-01-25 14:25:56 51°16.658 2°36.875 136.1 0.7 70 29.2
2005-01-25 14:26:56 51°16.662 2°36.889 135.1 0.9 57 29.3
2005-01-25 14:27:56 51°16.665 2°36.901 139.4 0.4 47 29.1
2005-01-25 14:28:56 51°16.668 2°36.914 136.7 0.3 59 28.9
2005-01-25 14:29:56 51°16.669 2°36.924 136.7 0.4 69 29
2005-01-25 14:30:56 51°16.672 2°36.934 137.2 0.5 52 29
2005-01-25 14:31:56 51°16.675 2°36.948 132.3 0.6 66 29.1
2005-01-25 14:32:56 51°16.677 2°36.961 129.6 0.5 75 29
2005-01-25 14:33:56 51°16.679 2°36.974 133.1 0.6 72 28.3
2005-01-25 14:34:56 51°16.683 2°36.984 131.8 0.8 51 28.2
2005-01-25 14:35:56 51°16.685 2°36.992 132.6 0.3 90 28.5
2005-01-25 14:36:56 51°16.687 2°37.001 136 0.5 70 28.9
2005-01-25 14:37:56 51°16.68 2°37.024 145.9 1.4 117 28.9
2005-01-25 14:38:56 51°16.654 2°37.058 163.1 2.3 148 29.1
2005-01-25 14:39:57 51°16.611 2°37.093 171.2 3.2 159 28.9
2005-01-25 14:40:56 51°16.554 2°37.112 176.9 3.7 172 28.9
2005-01-25 14:41:56 51°16.49 2°37.135 174.2 4.3 163 29.3
2005-01-25 14:42:56 51°16.42 2°37.162 175.6 4.3 168 28.9
2005-01-25 14:43:56 51°16.349 2°37.189 176 4.4 165 28.1
2005-01-25 14:44:56 51°16.222 2°37.196 189.6 11.8 184 24.5
2005-01-25 14:45:56 51°16.012 2°37.159 189.6 13.4 185 17.2
2005-01-25 14:46:56 51°15.799 2°37.188 177.2 13.5 170 13.9
2005-01-25 14:47:56 51°15.587 2°37.23 176.3 13 180 15.1
2005-01-25 14:48:56 51°15.371 2°37.292 174.8 13.5 170 14.3
2005-01-25 14:49:56 51°15.167 2°37.407 153.9 13.8 158 12.8
2005-01-25 14:50:56 51°14.996 2°37.634 142.8 13.6 137 12.1
2005-01-25 14:51:56 51°14.825 2°37.859 143 13.5 137 13.4
2005-01-25 14:52:56 51°14.65 2°38.084 143.7 13.5 142 17.4
2005-01-25 14:53:56 51°14.477 2°38.303 144.9 13 143 18.8
2005-01-25 14:54:56 51°14.3 2°38.52 146.9 13.3 139 19.6
2005-01-25 14:55:56 51°14.11 2°38.692 155.9 12.7 161 15.6
2005-01-25 14:56:56 51°13.896 2°38.731 190.8 12.9 188 14.3
2005-01-25 14:57:56 51°13.7 2°38.58 216.6 13.4 215 15.1
2005-01-25 14:58:57 51°13.527 2°38.352 220.6 13.2 218 15.4
2005-01-25 14:59:56 51°13.335 2°38.173 211.9 13.8 210 15.3
2005-01-25 15:00:57 51°13.134 2°38.007 211.3 13.3 210 15.2
2005-01-25 15:01:57 51°12.939 2°37.852 207.2 13.1 205 14.7
2005-01-25 15:02:57 51°12.738 2°37.701 205.8 13.8 204 14
2005-01-25 15:03:57 51°12.539 2°37.55 211.3 13.7 212 13.4
2005-01-25 15:04:56 51°12.346 2°37.394 213.1 13.1 208 13
2005-01-25 15:05:57 51°12.151 2°37.225 208.2 13 209 12.7
2005-01-25 15:06:57 51°11.954 2°37.071 206.9 12.7 201 12.6
2005-01-25 15:07:56 51°11.757 2°36.92 204.9 13.1 206 13
2005-01-25 15:08:56 51°11.562 2°36.756 208.8 12.7 200 13.1
2005-01-25 15:09:57 51°11.362 2°36.596 207.6 13.6 205 13
2005-01-25 15:10:57 51°11.162 2°36.423 209.7 13.9 209 13.3
2005-01-25 15:11:57 51°10.963 2°36.263 207.8 13.9 208 12.8
2005-01-25 15:12:56 51°10.77 2°36.117 203.7 12.9 202 12.5
2005-01-25 15:13:57 51°10.566 2°35.966 207.7 13.1 207 12.1
2005-01-25 15:14:57 51°10.356 2°35.851 198.7 13.2 197 12.2
2005-01-25 15:15:56 51°10.14 2°35.788 181 13.3 175 13.4
2005-01-25 15:16:56 51°9.979 2°35.995 121.6 12.9 113 19.5
2005-01-25 15:17:57 51°9.971 2°36.344 87.3 13.3 85 19.5
2005-01-25 15:18:56 51°10.026 2°36.683 77.1 13.2 73 19.2
2005-01-25 15:19:56 51°10.092 2°37.019 78.3 13.4 72 19.4
2005-01-25 15:20:56 51°10.155 2°37.362 78.4 13.4 74 19.5
2005-01-25 15:21:57 51°10.223 2°37.706 74 13.4 69 19.2
2005-01-25 15:22:56 51°10.297 2°38.029 73.1 13.1 71 18.7
2005-01-25 15:23:56 51°10.374 2°38.361 73.5 13.3 70 18
2005-01-25 15:24:56 51°10.45 2°38.69 73.7 13.3 71 17.8
2005-01-25 15:25:57 51°10.528 2°39.03 74 13.5 70 17.1
2005-01-25 15:26:57 51°10.604 2°39.367 73.7 13.4 70 16.3
2005-01-25 15:27:57 51°10.678 2°39.701 74.4 13.4 71 16.1
2005-01-25 15:28:57 51°10.752 2°40.034 74.1 13.4 69 15.5
2005-01-25 15:29:56 51°10.823 2°40.361 74.2 13.3 70 14.8
2005-01-25 15:30:57 51°10.885 2°40.701 79.8 13.2 76 14.3
2005-01-25 15:31:56 51°10.938 2°41.036 79.7 13.3 76 13.9
2005-01-25 15:32:57 51°10.994 2°41.382 79 13.4 76 13.5
2005-01-25 15:33:56 51°11.042 2°41.701 79.2 10.4 75 13.4
2005-01-25 15:34:56 51°11.075 2°41.892 68.7 6.1 68 13.4
2005-01-25 15:35:57 51°11.104 2°42.022 88 4.2 86 13.4
2005-01-25 15:36:56 51°11.093 2°42.064 111.3 0.8 142 13.6
2005-01-25 15:37:57 51°11.078 2°42.066 129.3 0.9 176 13.6
2005-01-25 15:38:56 51°11.063 2°42.059 135.7 0.8 198 13.5
2005-01-25 15:39:57 51°11.049 2°42.051 133.5 1.2 202 13.5
2005-01-25 15:40:56 51°11.036 2°42.041 135.7 0.6 191 13.8
2005-01-25 15:41:56 51°11.023 2°42.031 133.6 0.7 213 13.7
2005-01-25 15:42:56 51°11.009 2°42.019 135.1 1 208 13.5
2005-01-25 15:43:57 51°10.995 2°42.008 136.3 0.9 208 13.4
2005-01-25 15:44:56 51°10.982 2°41.994 143 1 212 13.9
2005-01-25 15:45:57 51°10.968 2°41.981 143.7 0.9 197 13.7
2005-01-25 15:46:57 51°10.943 2°42.019 113.2 3.4 121 14
2005-01-25 15:47:56 51°10.944 2°42.122 71.9 4.8 73 13.9
2005-01-25 15:48:57 51°10.974 2°42.262 71.1 5.8 68 13.9
2005-01-25 15:49:57 51°11.005 2°42.426 75.8 6.6 75 13.8
2005-01-25 15:50:56 51°11.034 2°42.588 77.2 6.7 75 13.6
2005-01-25 15:51:57 51°11.064 2°42.758 76.5 6.4 74 13.8
2005-01-25 15:52:56 51°11.094 2°42.943 77.7 7.5 77 13.6
2005-01-25 15:53:56 51°11.131 2°43.149 75.5 8.8 75 13.5
2005-01-25 15:54:56 51°11.17 2°43.349 73.9 7.4 68 13.6
2005-01-25 15:55:57 51°11.212 2°43.533 72.4 7.2 72 13.6
2005-01-25 15:56:57 51°11.251 2°43.71 72.8 7.2 70 13.7
2005-01-25 15:57:57 51°11.304 2°43.945 72.8 11.7 70 13.5
2005-01-25 15:58:56 51°11.38 2°44.254 72.4 12.8 69 13.4
2005-01-25 15:59:57 51°11.459 2°44.575 72.5 12.9 71 13.6
2005-01-25 16:00:57 51°11.533 2°44.894 74 12.8 70 13.6
2005-01-25 16:01:56 51°11.608 2°45.207 74.3 12.9 69 13.4
2005-01-25 16:02:57 51°11.685 2°45.529 73 12.7 70 13.7
2005-01-25 16:03:56 51°11.757 2°45.841 73.2 12.6 71 13.6
2005-01-25 16:04:56 51°11.832 2°46.155 73.1 12.9 71 13.4
2005-01-25 16:05:56 51°11.907 2°46.472 73.3 12.7 70 13.4
2005-01-25 16:06:57 51°11.983 2°46.798 72.8 13 69 13.6
2005-01-25 16:07:56 51°12.059 2°47.111 73.5 12.9 69 13.3
2005-01-25 16:08:56 51°12.134 2°47.432 73.6 12.9 69 13.2
2005-01-25 16:09:56 51°12.209 2°47.748 72.9 12.6 70 13.2
2005-01-25 16:10:57 51°12.284 2°48.068 72.2 12.7 71 12.9
2005-01-25 16:11:57 51°12.356 2°48.384 73.5 12.7 70 12.6
2005-01-25 16:12:57 51°12.43 2°48.704 73.4 12.7 69 12.4
2005-01-25 16:13:56 51°12.509 2°49.008 69.6 12.7 66 12.1
2005-01-25 16:14:56 51°12.598 2°49.317 69.6 12.6 66 12
2005-01-25 16:15:56 51°12.696 2°49.607 64.6 12.5 62 11.6
2005-01-25 16:16:56 51°12.799 2°49.898 64.9 12.5 61 11.7
2005-01-25 16:17:57 51°12.902 2°50.196 64.9 12.5 59 11.7
2005-01-25 16:18:57 51°13.003 2°50.489 65.4 12.7 61 11.4
2005-01-25 16:19:56 51°13.103 2°50.78 65.4 12.7 63 11.2
2005-01-25 16:20:56 51°13.208 2°51.07 61.8 12.7 59 11.1
2005-01-25 16:21:57 51°13.323 2°51.361 62.1 12.8 57 11
2005-01-25 16:22:56 51°13.43 2°51.643 62.3 12.6 60 11
2005-01-25 16:23:57 51°13.541 2°51.934 62.9 12.5 58 10.8
2005-01-25 16:24:56 51°13.65 2°52.213 62 12.6 57 11
2005-01-25 16:25:57 51°13.763 2°52.503 62.5 12.6 57 10.7
2005-01-25 16:26:56 51°13.871 2°52.784 62.2 12.8 58 10.6
2005-01-25 16:27:56 51°13.981 2°53.071 62.1 12.7 61 10.4
2005-01-25 16:28:56 51°14.093 2°53.352 61.9 12.6 57 10.3
2005-01-25 16:29:56 51°14.187 2°53.646 70 12.4 68 9.9
2005-01-25 16:30:57 51°14.27 2°53.954 69.6 12.3 67 9.5
2005-01-25 16:31:56 51°14.355 2°54.245 68.6 12.2 64 9.6
2005-01-25 16:32:56 51°14.39 2°54.539 89.6 11.1 90 10.3
2005-01-25 16:33:57 51°14.381 2°54.837 93.2 11 95 10.4
2005-01-25 16:34:57 51°14.329 2°55.122 112.6 11.6 115 10.9
2005-01-25 16:35:57 51°14.201 2°55.345 142 10.8 141 10.7
2005-01-25 16:36:57 51°14.068 2°55.456 157.9 8.2 156 9.9
2005-01-25 16:37:56 51°13.949 2°55.544 157.5 8.1 155 10.4
2005-01-25 16:38:56 51°13.821 2°55.64 157.3 8.6 154 11.2
2005-01-25 16:39:56 51°13.719 2°55.778 134.2 7.8 131 12.9
2005-01-25 16:40:56 51°13.653 2°55.922 126.2 5.8 123 9.9
2005-01-25 16:41:56 51°13.613 2°56.037 120.9 4 119 10.7
2005-01-25 16:42:57 51°13.594 2°56.1 111.7 0.6 117 7.7
2005-01-25 16:43:57 51°13.592 2°56.105 119.9 0.5 78 7.7
2005-01-25 16:44:57 51°13.593 2°56.104 124.5 0.2 120 -999